Accueil
METAR-TAF:

METAR-TAF

Aéroports :

Pruniers

Romorantin, France

latitude: 47-19N, longitude: 001-41E, altitude: 85 m

Observation

Le bulletin a été fait il y a 26 minutes, à 14:30 UTC
Vent 12 kt de sud
Température 12°C
Humidité 94%
Pression 1007 hPa
Visibilité 10 km ou plus
Ciel couvert à une hauteur de 800 ft
faible bruine

METAR: LFYR 271430Z AUTO 18012KT 9999 -DZ OVC008 12/11 Q1007 TEMPO 22015G25KT 4000 RA

Heure: 15:56 (14:56 UTC)


TAF: absent

Observations et prévisions météorologiques de plus de 4000 aéroports (messages METAR et TAF).

Les stations disponibles sont représentées par des disques jaunes et rouges sur la carte.

Passer la souris dessus pour voir le nom de la station.

Cliquer dessus pour voir les observations et prévisions météorologiques.

Pour changer de carte: cliquez sur les boutons verts avec une croix noire pour zoomer, sur le bouton vert avec un tiret pour effectuer un zoom arrière, ou sur les flèches vertes pour les cartes adjacentes.


METAR-TAF: